createdAt,value
2019-02-12T00:01:32.431Z,99445.23
2019-02-12T00:04:07.661Z,99441.08
2019-02-12T00:06:42.685Z,99436.44
2019-02-12T00:09:17.717Z,99442.94
2019-02-12T00:11:53.882Z,99442.67
2019-02-12T00:14:28.812Z,99439.80
2019-02-12T00:17:04.091Z,99449.47
2019-02-12T00:19:40.069Z,99452.05
2019-02-12T00:22:15.648Z,99458.45
2019-02-12T00:24:50.791Z,99467.33
2019-02-12T00:27:27.473Z,99471.52
2019-02-12T00:30:02.921Z,99475.78
2019-02-12T00:32:38.306Z,99481.73
2019-02-12T00:35:13.392Z,99486.27
2019-02-12T00:37:48.550Z,99482.58
2019-02-12T00:40:24.159Z,99485.08
2019-02-12T00:42:59.217Z,99492.02
2019-02-12T00:45:33.780Z,99503.70
2019-02-12T00:48:09.699Z,99491.20
2019-02-12T00:50:44.332Z,99509.54
2019-02-12T00:53:19.097Z,99515.86
2019-02-12T00:55:53.891Z,99520.12
2019-02-12T00:58:29.460Z,99514.12
2019-02-12T01:01:05.983Z,99523.55
2019-02-12T01:03:41.563Z,99531.48
2019-02-12T01:06:16.468Z,99531.48
2019-02-12T01:08:51.515Z,99538.69
2019-02-12T01:11:26.462Z,99565.23
2019-02-12T01:14:01.964Z,99548.45
2019-02-12T01:16:38.044Z,99546.45
2019-02-12T01:19:13.254Z,99557.41
2019-02-12T01:21:49.448Z,99557.11
2019-02-12T01:24:23.810Z,99572.14
2019-02-12T01:27:00.562Z,99560.51
2019-02-12T01:29:35.478Z,99565.95
2019-02-12T01:32:09.871Z,99573.53
2019-02-12T01:34:44.228Z,99581.74
2019-02-12T01:37:19.376Z,99580.63
2019-02-12T01:39:56.256Z,99586.29
2019-02-12T01:42:32.587Z,99584.68
2019-02-12T01:45:07.287Z,99577.73
2019-02-12T01:47:42.895Z,99585.49
2019-02-12T01:50:18.256Z,99591.97
2019-02-12T01:52:53.261Z,99581.28
2019-02-12T01:55:27.997Z,99596.31
2019-02-12T01:58:02.586Z,99594.09
2019-02-12T02:00:38.343Z,99596.08
2019-02-12T02:03:13.707Z,99590.22
2019-02-12T02:05:48.725Z,99599.59
2019-02-12T02:08:24.348Z,99609.80
2019-02-12T02:11:00.138Z,99608.14
2019-02-12T02:13:35.741Z,99610.37
2019-02-12T02:16:11.033Z,99606.50
2019-02-12T02:18:45.955Z,99621.18
2019-02-12T02:21:21.629Z,99617.31
2019-02-12T02:23:56.860Z,99627.41
2019-02-12T02:26:32.111Z,99631.72
2019-02-12T02:29:06.372Z,99632.92
2019-02-12T02:31:41.457Z,99629.28
2019-02-12T02:34:17.978Z,99637.70
2019-02-12T02:36:52.887Z,99634.17
2019-02-12T02:39:29.336Z,99633.32
2019-02-12T02:42:04.354Z,99637.56
2019-02-12T02:44:39.394Z,99635.84
2019-02-12T02:47:14.879Z,99635.42
2019-02-12T02:49:50.782Z,99635.07
2019-02-12T02:52:26.864Z,99643.26
2019-02-12T02:55:02.901Z,99631.00
2019-02-12T02:57:38.362Z,99632.09
2019-02-12T03:00:13.858Z,99642.34
2019-02-12T03:02:50.229Z,99641.91
2019-02-12T03:05:26.408Z,99642.20
2019-02-12T03:08:02.665Z,99643.69
2019-02-12T03:10:39.957Z,99645.11
2019-02-12T03:13:15.518Z,99641.06
2019-02-12T03:15:50.463Z,99652.72
2019-02-12T03:18:24.795Z,99655.42
2019-02-12T03:20:59.950Z,99660.50
2019-02-12T03:23:36.627Z,99665.02
2019-02-12T03:26:11.520Z,99664.69
2019-02-12T03:28:47.702Z,99669.75
2019-02-12T03:31:23.765Z,99673.23
2019-02-12T03:33:58.795Z,99682.01
2019-02-12T03:36:34.771Z,99683.79
2019-02-12T03:39:09.755Z,99686.02
2019-02-12T03:41:45.333Z,99697.05
2019-02-12T03:44:20.365Z,99700.20
2019-02-12T03:46:56.813Z,99703.16
2019-02-12T03:49:32.032Z,99711.55
2019-02-12T03:52:12.837Z,99708.53
2019-02-12T03:54:44.831Z,99717.82
2019-02-12T03:57:19.773Z,99718.30
2019-02-12T03:59:55.190Z,99711.53
2019-02-12T04:02:29.634Z,99717.84
2019-02-12T04:05:05.106Z,99716.02
2019-02-12T04:07:40.348Z,99720.25
2019-02-12T04:10:15.435Z,99720.23
2019-02-12T04:12:51.350Z,99709.91
2019-02-12T04:15:27.285Z,99712.61
2019-02-12T04:18:03.799Z,99703.55
2019-02-12T04:20:39.833Z,99695.23
2019-02-12T04:23:14.783Z,99706.31
2019-02-12T04:25:51.137Z,99713.36
2019-02-12T04:28:26.706Z,99709.61
2019-02-12T04:31:01.747Z,99710.09
2019-02-12T04:33:38.231Z,99704.08
2019-02-12T04:36:15.101Z,99707.65
2019-02-12T04:38:51.391Z,99709.78
2019-02-12T04:41:28.311Z,99714.22
2019-02-12T04:44:04.396Z,99719.68
2019-02-12T04:46:39.607Z,99728.98
2019-02-12T04:49:15.571Z,99721.98
2019-02-12T04:51:50.627Z,99726.39
2019-02-12T04:54:25.661Z,99734.75
2019-02-12T04:57:00.934Z,99727.36
2019-02-12T04:59:37.499Z,99725.75
2019-02-12T05:02:13.810Z,99733.34
2019-02-12T05:04:48.731Z,99738.25
2019-02-12T05:07:23.393Z,99738.25
2019-02-12T05:09:59.596Z,99760.23
2019-02-12T05:12:35.011Z,99736.91
2019-02-12T05:15:10.304Z,99750.34
2019-02-12T05:17:45.439Z,99753.23
2019-02-12T05:20:20.820Z,99754.10
2019-02-12T05:22:57.018Z,99763.98
2019-02-12T05:25:32.835Z,99755.71
2019-02-12T05:28:07.922Z,99752.27
2019-02-12T05:30:42.541Z,99745.33
2019-02-12T05:33:18.462Z,99748.00
2019-02-12T05:35:54.513Z,99745.86
2019-02-12T05:38:29.998Z,99745.98
2019-02-12T05:41:05.166Z,99750.76
2019-02-12T05:43:40.330Z,99753.91
2019-02-12T05:46:16.139Z,99750.09
2019-02-12T05:48:51.719Z,99774.28
2019-02-12T05:51:27.858Z,99760.78
2019-02-12T05:54:03.608Z,99777.39
2019-02-12T05:56:39.038Z,99767.86
2019-02-12T05:59:19.024Z,99779.79
2019-02-12T06:02:01.865Z,99777.50
2019-02-12T06:04:42.028Z,99785.92
2019-02-12T06:07:17.756Z,99797.05
2019-02-12T06:09:53.229Z,99793.39
2019-02-12T06:12:28.987Z,99795.08
2019-02-12T06:15:05.062Z,99801.69
2019-02-12T06:17:40.537Z,99810.90
2019-02-12T06:20:15.808Z,99821.33
2019-02-12T06:22:51.161Z,99823.01
2019-02-12T06:25:26.203Z,99827.77
2019-02-12T06:28:01.317Z,99841.16
2019-02-12T06:30:37.592Z,99843.86
2019-02-12T06:33:12.813Z,99841.45
2019-02-12T06:35:47.273Z,99852.23
2019-02-12T06:38:22.509Z,99854.41
2019-02-12T06:40:59.798Z,99857.69
2019-02-12T06:43:36.286Z,99870.17
2019-02-12T06:46:11.949Z,99860.08
2019-02-12T06:48:47.850Z,99864.64
2019-02-12T06:51:22.854Z,99872.15
2019-02-12T06:53:58.487Z,99876.82
2019-02-12T06:56:36.395Z,99877.09
2019-02-12T06:59:11.548Z,99883.59
2019-02-12T07:01:47.908Z,99882.52
2019-02-12T07:04:31.766Z,99894.99
2019-02-12T07:08:03.469Z,99894.09
2019-02-12T07:10:42.295Z,99898.84
2019-02-12T07:13:57.095Z,99904.97
2019-02-12T07:17:36.247Z,99907.20
2019-02-12T07:21:03.695Z,99918.04
2019-02-12T07:24:26.423Z,99920.95
2019-02-12T07:27:59.003Z,99926.48
2019-02-12T07:31:17.290Z,99932.43
2019-02-12T07:34:43.602Z,99931.55
2019-02-12T07:38:01.739Z,99939.32
2019-02-12T07:41:45.123Z,99946.95
2019-02-12T07:44:50.628Z,99945.80
2019-02-12T07:48:06.803Z,99941.67
2019-02-12T07:51:48.018Z,99944.91
2019-02-12T07:54:58.358Z,99961.47
2019-02-12T07:58:33.130Z,99972.22
2019-02-12T08:01:37.158Z,99980.42
2019-02-12T08:05:13.466Z,99973.15
2019-02-12T08:08:58.574Z,99977.98
2019-02-12T08:12:12.303Z,99991.15
2019-02-12T08:15:51.473Z,99983.44
2019-02-12T08:18:50.041Z,99988.47
2019-02-12T08:22:06.341Z,99989.20
2019-02-12T08:25:18.236Z,99993.91
2019-02-12T08:29:21.073Z,99995.09
2019-02-12T08:32:32.733Z,99999.31
2019-02-12T08:35:59.981Z,100002.51
2019-02-12T08:39:38.003Z,100013.25
2019-02-12T08:42:57.706Z,100014.58
2019-02-12T09:03:06.887Z,100033.25
2019-02-12T09:06:32.076Z,100029.25
2019-02-12T09:09:59.110Z,100038.89
2019-02-12T09:13:48.718Z,100030.92
2019-02-12T09:17:42.902Z,100041.51
2019-02-12T09:20:50.463Z,100044.77
2019-02-12T09:24:23.861Z,100049.98
2019-02-12T09:27:51.199Z,100065.35
2019-02-12T09:31:25.701Z,100058.73
2019-02-12T09:35:04.123Z,100069.34
2019-02-12T09:38:31.605Z,100071.14
2019-02-12T09:41:41.221Z,100079.73
2019-02-12T09:45:04.987Z,100080.00
2019-02-12T09:48:23.603Z,100075.50
2019-02-12T09:51:39.921Z,100087.63
2019-02-12T09:55:12.767Z,100082.47
2019-02-12T09:58:08.062Z,100101.87
2019-02-12T10:01:21.934Z,100092.60
2019-02-12T10:05:20.901Z,100091.59
2019-02-12T10:09:09.553Z,100127.28
2019-02-12T10:12:39.755Z,100097.87
2019-02-12T10:16:06.621Z,100099.14
2019-02-12T10:19:42.558Z,100095.09
2019-02-12T10:22:56.047Z,100095.04
2019-02-12T10:25:39.550Z,100108.09
2019-02-12T10:29:25.658Z,100111.16
2019-02-12T10:31:55.061Z,100105.03
2019-02-12T10:34:28.742Z,100106.92
2019-02-12T10:37:02.442Z,100105.84
2019-02-12T10:39:36.214Z,100110.84
2019-02-12T10:42:10.443Z,100110.33
2019-02-12T10:44:44.350Z,100115.79
2019-02-12T10:47:18.732Z,100120.19
2019-02-12T10:49:52.416Z,100116.99
2019-02-12T10:52:27.124Z,100126.23
2019-02-12T10:55:01.236Z,100128.66
2019-02-12T10:57:35.653Z,100132.06
2019-02-12T11:00:15.131Z,100131.52
2019-02-12T11:02:50.378Z,100136.05
2019-02-12T11:05:25.220Z,100139.08
2019-02-12T11:07:59.759Z,100138.86
2019-02-12T11:10:32.755Z,100139.78
2019-02-12T11:13:06.588Z,100144.09
2019-02-12T11:15:39.384Z,100146.20
2019-02-12T11:18:13.302Z,100139.30
2019-02-12T11:20:47.518Z,100143.72
2019-02-12T11:23:22.049Z,100168.61
2019-02-12T11:25:55.621Z,100154.65
2019-02-12T11:28:30.289Z,100154.14
2019-02-12T11:31:03.651Z,100150.38
2019-02-12T11:33:37.705Z,100144.62
2019-02-12T11:36:11.948Z,100156.78
2019-02-12T11:38:46.742Z,100149.84
2019-02-12T11:41:26.481Z,100152.72
2019-02-12T11:44:00.877Z,100159.73
2019-02-12T11:46:36.254Z,100151.73
2019-02-12T11:49:10.682Z,100152.13
2019-02-12T11:51:44.910Z,100161.83
2019-02-12T11:54:18.942Z,100166.44
2019-02-12T11:56:55.236Z,100163.22
2019-02-12T11:59:30.882Z,100163.27
2019-02-12T12:02:06.198Z,100173.17
2019-02-12T12:04:41.118Z,100176.76
2019-02-12T12:07:15.983Z,100180.73
2019-02-12T12:09:49.828Z,100175.78
2019-02-12T12:12:24.652Z,100171.12
2019-02-12T12:15:00.269Z,100165.04
2019-02-12T12:17:33.499Z,100168.47
2019-02-12T12:20:08.937Z,100171.38
2019-02-12T12:22:44.123Z,100181.16
2019-02-12T12:25:19.017Z,100186.03
2019-02-12T12:27:54.248Z,100190.89
2019-02-12T12:30:28.700Z,100189.29
2019-02-12T12:33:03.429Z,100195.55
2019-02-12T12:35:37.174Z,100193.88
2019-02-12T12:38:13.451Z,100196.61
2019-02-12T12:40:48.115Z,100196.80
2019-02-12T12:43:23.365Z,100204.07
2019-02-12T12:45:58.752Z,100200.88
2019-02-12T12:48:33.347Z,100204.04
2019-02-12T12:51:08.548Z,100202.43
2019-02-12T12:53:43.202Z,100205.09
2019-02-12T12:56:16.608Z,100204.70
2019-02-12T12:58:49.850Z,100210.80
2019-02-12T13:01:23.593Z,100206.11
2019-02-12T13:03:56.486Z,100206.84
2019-02-12T13:06:30.584Z,100210.20
2019-02-12T13:09:06.043Z,100215.76
2019-02-12T13:11:39.880Z,100207.88
2019-02-12T13:14:14.324Z,100224.31
2019-02-12T13:16:48.805Z,100220.02
2019-02-12T13:19:21.424Z,100216.79
2019-02-12T13:21:54.827Z,100215.10
2019-02-12T13:24:29.182Z,100223.17
2019-02-12T13:27:01.648Z,100227.61
2019-02-12T13:29:34.513Z,100222.91
2019-02-12T13:32:09.040Z,100228.92
2019-02-12T13:34:42.317Z,100240.69
2019-02-12T13:37:16.231Z,100235.76
2019-02-12T13:39:49.172Z,100242.61
2019-02-12T13:42:21.667Z,100247.86
2019-02-12T13:44:56.273Z,100248.43
2019-02-12T13:47:31.419Z,100256.63
2019-02-12T13:50:08.517Z,100259.28
2019-02-12T13:52:41.493Z,100258.76
2019-02-12T13:55:17.359Z,100268.13
2019-02-12T13:57:49.124Z,100266.05
2019-02-12T14:00:22.586Z,100268.99
2019-02-12T14:02:56.116Z,100273.05
2019-02-12T14:05:28.745Z,100280.13
2019-02-12T14:08:01.973Z,100292.72
2019-02-12T14:10:36.330Z,100292.11
2019-02-12T14:13:10.705Z,100284.33
2019-02-12T14:15:44.425Z,100284.30
2019-02-12T14:18:18.498Z,100288.56
2019-02-12T14:20:53.821Z,100299.08
2019-02-12T14:23:28.520Z,100300.14
2019-02-12T14:26:03.676Z,100299.33
2019-02-12T14:28:37.942Z,100306.69
2019-02-12T14:31:11.990Z,100305.57
2019-02-12T14:33:46.149Z,100321.02
2019-02-12T14:36:20.098Z,100329.06
2019-02-12T14:38:54.221Z,100325.09
2019-02-12T14:41:28.446Z,100318.44
2019-02-12T14:44:02.869Z,100329.12
2019-02-12T14:46:36.456Z,100322.91
2019-02-12T14:49:10.770Z,100337.65
2019-02-12T14:51:45.041Z,100342.61
2019-02-12T14:54:19.134Z,100349.90
2019-02-12T14:56:52.254Z,100354.85
2019-02-12T14:59:26.062Z,100363.27
2019-02-12T15:02:00.175Z,100378.12
2019-02-12T15:04:34.526Z,100378.42
2019-02-12T15:07:07.558Z,100377.69
2019-02-12T15:09:41.892Z,100390.22
2019-02-12T15:12:16.207Z,100383.13
2019-02-12T15:14:50.511Z,100387.61
2019-02-12T15:17:25.406Z,100395.25
2019-02-12T15:19:59.762Z,100399.52
2019-02-12T15:22:33.851Z,100405.17
2019-02-12T15:25:06.723Z,100411.89
2019-02-12T15:27:41.060Z,100406.44
2019-02-12T15:30:15.584Z,100409.95
2019-02-12T15:32:49.852Z,100418.16
2019-02-12T15:35:23.647Z,100413.16
2019-02-12T15:37:58.023Z,100425.59
2019-02-12T15:40:32.114Z,100427.70
2019-02-12T15:43:06.472Z,100430.62
2019-02-12T15:45:39.641Z,100431.30
2019-02-12T15:48:13.864Z,100436.20
2019-02-12T15:50:47.690Z,100440.91
2019-02-12T15:53:20.863Z,100443.75
2019-02-12T15:55:55.176Z,100445.53
2019-02-12T15:58:30.261Z,100455.78
2019-02-12T16:01:06.087Z,100460.92
2019-02-12T16:03:40.724Z,100472.88
2019-02-12T16:06:13.693Z,100469.59
2019-02-12T16:08:49.214Z,100472.58
2019-02-12T16:11:23.657Z,100479.48
2019-02-12T16:13:58.867Z,100489.94
2019-02-12T16:16:33.375Z,100488.62
2019-02-12T16:19:07.849Z,100490.58
2019-02-12T16:21:42.614Z,100500.66
2019-02-12T16:24:17.176Z,100508.09
2019-02-12T16:26:51.414Z,100509.70
2019-02-12T16:29:25.650Z,100505.81
2019-02-12T16:31:59.024Z,100513.83
2019-02-12T16:34:32.896Z,100520.12
2019-02-12T16:37:06.725Z,100526.64
2019-02-12T16:39:40.951Z,100524.91
2019-02-12T16:42:14.651Z,100533.96
2019-02-12T16:44:48.388Z,100540.09
2019-02-12T16:47:22.757Z,100546.80
2019-02-12T16:49:57.011Z,100549.39
2019-02-12T16:52:30.928Z,100554.05
2019-02-12T16:55:04.609Z,100560.76
2019-02-12T16:57:38.377Z,100563.63
2019-02-12T17:00:18.500Z,100569.23
2019-02-12T17:02:52.192Z,100576.66
2019-02-12T17:05:26.067Z,100590.53
2019-02-12T17:07:59.996Z,100595.89
2019-02-12T17:10:33.687Z,100600.63
2019-02-12T17:13:07.487Z,100606.97
2019-02-12T17:15:41.695Z,100610.12
2019-02-12T17:18:15.450Z,100613.57
2019-02-12T17:20:49.665Z,100608.41
2019-02-12T17:23:24.056Z,100615.03
2019-02-12T17:25:59.744Z,100619.26
2019-02-12T17:28:33.927Z,100625.00
2019-02-12T17:31:08.368Z,100632.48
2019-02-12T17:33:43.888Z,100630.52
2019-02-12T17:36:17.638Z,100638.59
2019-02-12T17:38:50.075Z,100647.66
2019-02-12T17:41:23.971Z,100650.16
2019-02-12T17:43:58.135Z,100655.62
2019-02-12T17:46:32.120Z,100658.31
2019-02-12T17:49:07.368Z,100656.16
2019-02-12T17:51:42.668Z,100662.55
2019-02-12T17:54:18.381Z,100666.24
2019-02-12T17:57:02.004Z,100663.66
2019-02-12T17:59:37.379Z,100667.26
2019-02-12T18:02:12.659Z,100683.03
2019-02-12T18:04:47.279Z,100678.94
2019-02-12T18:07:21.006Z,100689.06
2019-02-12T18:09:54.791Z,100687.52
2019-02-12T18:12:29.664Z,100683.30
2019-02-12T18:15:03.590Z,100685.02
2019-02-12T18:17:38.939Z,100681.45
2019-02-12T18:20:13.004Z,100685.55
2019-02-12T18:22:47.559Z,100683.27
2019-02-12T18:25:22.269Z,100682.22
2019-02-12T18:27:56.673Z,100681.67
2019-02-12T18:30:32.082Z,100692.33
2019-02-12T18:33:07.035Z,100705.37
2019-02-12T18:35:41.427Z,100706.36
2019-02-12T18:38:15.217Z,100710.51
2019-02-12T18:40:49.561Z,100710.14
2019-02-12T18:43:23.419Z,100703.56
2019-02-12T18:45:58.583Z,100701.93
2019-02-12T18:48:32.859Z,100702.44
2019-02-12T18:51:07.036Z,100712.41
2019-02-12T18:53:40.765Z,100718.36
2019-02-12T18:56:14.930Z,100717.05
2019-02-12T18:58:49.201Z,100721.02
2019-02-12T19:01:22.465Z,100721.85
2019-02-12T19:03:56.267Z,100733.05
2019-02-12T19:06:28.826Z,100730.67
2019-02-12T19:09:01.515Z,100737.78
2019-02-12T19:11:33.952Z,100734.36
2019-02-12T19:14:07.394Z,100734.06
2019-02-12T19:16:40.292Z,100742.43
2019-02-12T19:19:13.536Z,100740.15
2019-02-12T19:21:46.693Z,100735.70
2019-02-12T19:24:20.339Z,100744.06
2019-02-12T19:26:54.769Z,100751.44
2019-02-12T19:29:27.320Z,100751.19
2019-02-12T19:32:00.281Z,100759.17
2019-02-12T19:34:32.787Z,100762.59
2019-02-12T19:37:05.705Z,100765.32
2019-02-12T19:39:38.755Z,100778.09
2019-02-12T19:42:12.576Z,100773.66
2019-02-12T19:44:45.916Z,100773.80
2019-02-12T19:47:18.677Z,100772.78
2019-02-12T19:49:51.599Z,100775.28
2019-02-12T19:52:23.917Z,100777.93
2019-02-12T19:54:57.067Z,100781.42
2019-02-12T19:57:30.429Z,100786.84
2019-02-12T20:00:03.344Z,100791.50
2019-02-12T20:02:35.782Z,100797.48
2019-02-12T20:05:08.672Z,100795.34
2019-02-12T20:07:41.910Z,100796.31
2019-02-12T20:10:13.958Z,100802.80
2019-02-12T20:12:47.669Z,100797.34
2019-02-12T20:15:20.225Z,100796.42
2019-02-12T20:17:54.582Z,100803.69
2019-02-12T20:20:27.470Z,100806.80
2019-02-12T20:23:00.965Z,100811.24
2019-02-12T20:25:34.249Z,100811.76
2019-02-12T20:28:07.113Z,100812.02
2019-02-12T20:30:39.835Z,100815.36
2019-02-12T20:33:12.838Z,100817.66
2019-02-12T20:35:45.554Z,100819.47
2019-02-12T20:38:19.619Z,100820.31
2019-02-12T20:40:53.203Z,100819.73
2019-02-12T20:43:26.535Z,100824.44
2019-02-12T20:46:00.789Z,100823.00
2019-02-12T20:48:33.395Z,100825.36
2019-02-12T20:51:06.190Z,100827.69
2019-02-12T20:53:40.102Z,100834.89
2019-02-12T20:56:12.831Z,100827.77
2019-02-12T20:58:46.643Z,100828.39
2019-02-12T21:01:18.982Z,100830.53
2019-02-12T21:03:52.647Z,100842.86
2019-02-12T21:06:25.628Z,100830.99
2019-02-12T21:08:58.287Z,100840.21
2019-02-12T21:11:30.774Z,100839.05
2019-02-12T21:14:04.071Z,100843.59
2019-02-12T21:16:36.994Z,100847.27
2019-02-12T21:19:09.914Z,100849.59
2019-02-12T21:21:43.775Z,100850.22
2019-02-12T21:24:16.712Z,100854.05
2019-02-12T21:26:49.147Z,100852.03
2019-02-12T21:29:22.417Z,100855.74
2019-02-12T21:31:55.213Z,100850.63
2019-02-12T21:34:28.295Z,100853.28
2019-02-12T21:37:01.599Z,100856.47
2019-02-12T21:39:34.610Z,100864.66
2019-02-12T21:42:07.551Z,100863.80
2019-02-12T21:44:40.563Z,100866.02
2019-02-12T21:47:13.719Z,100863.06
2019-02-12T21:49:47.222Z,100864.80
2019-02-12T21:52:19.590Z,100872.55
2019-02-12T21:54:53.447Z,100870.82
2019-02-12T21:57:31.556Z,100877.70
2019-02-12T22:00:01.186Z,100883.36
2019-02-12T22:02:33.239Z,100886.76
2019-02-12T22:05:06.174Z,100895.98
2019-02-12T22:07:38.670Z,100893.39
2019-02-12T22:10:14.698Z,100888.84
2019-02-12T22:12:48.309Z,100890.61
2019-02-12T22:15:21.990Z,100888.08
2019-02-12T22:17:54.856Z,100890.52
2019-02-12T22:20:27.332Z,100889.81
2019-02-12T22:23:02.001Z,100902.63
2019-02-12T22:25:36.089Z,100901.40
2019-02-12T22:28:09.450Z,100897.83
2019-02-12T22:30:43.389Z,100906.45
2019-02-12T22:33:17.422Z,100905.46
2019-02-12T22:35:50.705Z,100906.95
2019-02-12T22:38:24.520Z,100905.10
2019-02-12T22:40:57.850Z,100904.44
2019-02-12T22:43:31.956Z,100907.12
2019-02-12T22:46:05.643Z,100910.70
2019-02-12T22:48:39.219Z,100906.51
2019-02-12T22:51:13.452Z,100910.38
2019-02-12T22:53:47.796Z,100906.62
2019-02-12T22:56:45.563Z,100905.59
2019-02-12T22:59:19.345Z,100901.14
2019-02-12T23:01:53.359Z,100916.53
2019-02-12T23:04:27.297Z,100911.59
2019-02-12T23:07:01.041Z,100909.03
2019-02-12T23:09:34.880Z,100915.18
2019-02-12T23:12:07.701Z,100914.89
2019-02-12T23:14:40.906Z,100920.50
2019-02-12T23:17:14.486Z,100924.05
2019-02-12T23:19:48.551Z,100924.84
2019-02-12T23:22:22.813Z,100925.00
2019-02-12T23:24:56.825Z,100923.52
2019-02-12T23:27:30.481Z,100928.06
2019-02-12T23:30:04.186Z,100926.78
2019-02-12T23:32:38.318Z,100930.53
2019-02-12T23:35:12.451Z,100926.90
2019-02-12T23:37:45.314Z,100937.71
2019-02-12T23:40:20.255Z,100938.66
2019-02-12T23:42:53.974Z,100937.92
2019-02-12T23:45:27.216Z,100942.37
2019-02-12T23:48:01.492Z,100949.55
2019-02-12T23:50:35.456Z,100937.67
2019-02-12T23:53:08.811Z,100943.73
2019-02-12T23:55:42.807Z,100934.90
2019-02-12T23:58:16.361Z,100935.44
